Time;durP1;ratioP1;P1;durP2;ratioP2;P2;SDS_P1;SDS_P2;PMS_P1;PMS_P2;Temp;Humidity;BMP_temperature;BMP_pressure;BME280_temperature;BME280_humidity;BME280_pressure;Samples;Min_cycle;Max_cycle;Signal;HPM_P1;HPM_P2
2022/10/08 00:01:30;;;;;;;23.77;18.75;;;19.20;1.00;;;;;;5090704;28;20025;-51
2022/10/08 00:03:56;;;;;;;22.75;18.80;;;19.20;1.00;;;;;;5082398;28;20470;-51
2022/10/08 00:06:24;;;;;;;29.83;18.50;;;19.20;1.00;;;;;;5091166;28;20024;-52
2022/10/08 00:08:53;;;;;;;24.45;18.73;;;19.10;1.00;;;;;;5076134;28;21299;-48
2022/10/08 00:11:22;;;;;;;28.65;18.98;;;19.10;1.00;;;;;;5090816;28;20024;-47
2022/10/08 00:13:49;;;;;;;24.65;19.40;;;19.10;1.00;;;;;;5090340;28;20035;-49
2022/10/08 00:16:25;;;;;;;21.48;17.55;;;19.10;1.00;;;;;;5079318;28;20056;-48
2022/10/08 00:18:54;;;;;;;27.45;19.73;;;19.10;1.00;;;;;;5077694;28;20036;-47
2022/10/08 00:21:23;;;;;;;27.23;19.83;;;19.00;1.00;;;;;;5088779;28;20028;-49
2022/10/08 00:23:50;;;;;;;26.27;18.38;;;19.10;1.00;;;;;;5089909;28;20111;-49
2022/10/08 00:26:19;;;;;;;25.95;19.50;;;19.00;1.00;;;;;;5083656;28;20086;-49
2022/10/08 00:28:46;;;;;;;25.48;19.73;;;19.00;1.00;;;;;;5082186;28;20048;-49
2022/10/08 00:31:15;;;;;;;22.65;19.30;;;19.00;1.00;;;;;;5094351;28;20024;-49
2022/10/08 00:33:40;;;;;;;27.52;18.75;;;19.00;1.00;;;;;;5090073;28;20121;-51
2022/10/08 00:36:09;;;;;;;24.83;18.33;;;19.00;1.00;;;;;;5094813;28;20028;-52
2022/10/08 00:38:35;;;;;;;23.75;18.30;;;19.00;1.00;;;;;;5092622;28;20090;-49
2022/10/08 00:41:01;;;;;;;29.17;19.95;;;19.00;1.00;;;;;;5092546;28;20439;-49
2022/10/08 00:43:41;;;;;;;27.25;19.00;;;19.00;1.00;;;;;;5090890;28;20048;-49
2022/10/08 00:46:17;;;;;;;25.45;19.80;;;18.90;1.00;;;;;;5088350;28;20038;-49
2022/10/08 00:48:43;;;;;;;22.55;18.52;;;18.90;1.00;;;;;;5091394;28;20570;-50
2022/10/08 00:51:12;;;;;;;22.83;18.38;;;18.90;1.00;;;;;;5086729;28;20020;-51
2022/10/08 00:53:37;;;;;;;27.50;19.88;;;18.90;1.00;;;;;;5087026;28;20045;-48
2022/10/08 00:56:03;;;;;;;26.80;20.23;;;18.90;1.00;;;;;;5079780;28;20037;-50
2022/10/08 00:58:30;;;;;;;29.88;20.27;;;18.90;1.00;;;;;;5089322;28;20036;-49
2022/10/08 01:00:57;;;;;;;26.27;20.90;;;18.90;1.00;;;;;;5092391;28;20058;-48
2022/10/08 01:03:22;;;;;;;29.90;21.00;;;18.90;1.00;;;;;;5091960;28;20020;-47
2022/10/08 01:06:00;;;;;;;27.02;21.33;;;18.80;1.00;;;;;;5083410;28;20103;-50
2022/10/08 01:08:53;;;;;;;27.40;20.42;;;18.80;1.00;;;;;;5079011;28;20036;-49
2022/10/08 01:11:45;;;;;;;34.63;22.55;;;18.80;1.00;;;;;;5086765;28;20035;-49
2022/10/08 01:14:32;;;;;;;32.78;22.00;;;18.80;1.00;;;;;;5087879;28;20029;-54
2022/10/08 01:17:03;;;;;;;27.52;20.83;;;18.80;1.00;;;;;;5093697;28;20128;-49
2022/10/08 01:20:14;;;;;;;29.63;21.58;;;18.80;1.00;;;;;;5087649;28;20028;-47
2022/10/08 01:23:14;;;;;;;34.50;22.58;;;18.80;1.00;;;;;;5061940;28;20123;-51
2022/10/08 01:26:04;;;;;;;27.08;21.40;;;18.70;1.00;;;;;;5081447;28;20047;-51
2022/10/08 01:28:41;;;;;;;27.85;21.42;;;18.70;1.00;;;;;;5078166;28;20062;-50
2022/10/08 01:31:17;;;;;;;28.20;20.60;;;18.70;1.00;;;;;;5089097;28;20032;-49
2022/10/08 01:34:00;;;;;;;34.50;22.90;;;18.70;1.00;;;;;;5091097;28;20046;-48
2022/10/08 01:36:35;;;;;;;36.13;24.00;;;18.70;1.00;;;;;;5092919;28;20073;-50
2022/10/08 01:39:07;;;;;;;31.73;25.70;;;18.60;1.00;;;;;;5089749;28;20445;-48
2022/10/08 01:41:34;;;;;;;42.83;27.90;;;18.60;1.00;;;;;;5093099;28;20042;-48
2022/10/08 01:44:06;;;;;;;33.58;24.23;;;18.60;1.00;;;;;;5081802;28;20400;-49
2022/10/08 01:46:36;;;;;;;34.33;23.92;;;18.60;1.00;;;;;;5092939;28;20397;-47
2022/10/08 01:49:06;;;;;;;30.83;22.98;;;18.70;1.00;;;;;;5091452;28;20077;-47
2022/10/08 01:51:37;;;;;;;30.92;24.05;;;18.60;1.00;;;;;;5093170;28;20470;-50
2022/10/08 01:54:07;;;;;;;38.90;25.98;;;18.70;1.00;;;;;;5087447;28;20067;-47
2022/10/08 01:56:36;;;;;;;28.70;22.63;;;18.60;1.00;;;;;;5089456;28;20155;-50
2022/10/08 01:59:13;;;;;;;29.85;22.30;;;18.50;1.00;;;;;;5083349;28;20040;-54
2022/10/08 02:01:57;;;;;;;35.90;23.85;;;18.60;1.00;;;;;;5079579;28;20019;-51
2022/10/08 02:04:35;;;;;;;26.67;23.63;;;18.50;1.00;;;;;;5089280;28;20044;-51
2022/10/08 02:07:23;;;;;;;32.60;22.23;;;18.50;1.00;;;;;;5091370;28;20411;-48
2022/10/08 02:10:10;;;;;;;26.02;21.20;;;18.50;1.00;;;;;;5090868;28;20485;-51
2022/10/08 02:12:37;;;;;;;28.13;21.75;;;18.50;1.00;;;;;;5091623;28;20062;-49
2022/10/08 02:15:04;;;;;;;30.30;23.30;;;18.50;1.00;;;;;;5090580;28;20080;-52
2022/10/08 02:17:48;;;;;;;30.25;23.88;;;18.40;1.00;;;;;;5090295;28;20028;-51
2022/10/08 02:20:43;;;;;;;33.05;23.23;;;18.30;1.00;;;;;;5091530;28;20031;-49
2022/10/08 02:23:33;;;;;;;33.53;24.40;;;18.40;1.00;;;;;;5091957;28;20032;-51
2022/10/08 02:26:01;;;;;;;33.28;25.48;;;18.40;1.00;;;;;;5092705;28;20062;-49
2022/10/08 02:28:42;;;;;;;31.88;25.20;;;18.40;1.00;;;;;;5090219;28;20385;-49
2022/10/08 02:31:34;;;;;;;30.90;23.48;;;18.40;1.00;;;;;;5086931;28;20031;-49
2022/10/08 02:33:59;;;;;;;33.78;24.65;;;18.30;1.00;;;;;;5090029;28;20405;-49
2022/10/08 02:36:33;;;;;;;34.58;25.85;;;18.40;1.00;;;;;;5092725;28;20032;-49
2022/10/08 02:39:05;;;;;;;34.72;26.08;;;18.30;1.00;;;;;;5091477;28;20159;-51
2022/10/08 02:41:39;;;;;;;33.72;26.52;;;18.30;1.00;;;;;;5091394;28;20031;-48
2022/10/08 02:44:07;;;;;;;;;;;18.30;1.00;;;;;;5092047;28;20062;-50
2022/10/08 02:46:37;;;;;;;28.63;24.88;;;18.20;1.00;;;;;;5084847;28;20293;-50
2022/10/08 02:49:26;;;;;;;35.53;26.73;;;18.20;1.00;;;;;;5090292;28;20050;-47
2022/10/08 02:51:53;;;;;;;32.42;26.83;;;18.30;1.00;;;;;;5084750;28;20040;-49
2022/10/08 02:54:21;;;;;;;37.60;28.67;;;18.30;1.00;;;;;;5086754;28;20062;-50
2022/10/08 02:57:12;;;;;;;39.75;28.52;;;18.30;1.00;;;;;;5083829;28;20028;-50
2022/10/08 02:59:37;;;;;;;44.58;29.10;;;18.30;1.00;;;;;;5091225;28;20047;-48
2022/10/08 03:02:04;;;;;;;38.97;27.83;;;18.30;1.00;;;;;;5091613;28;20130;-53
2022/10/08 03:04:54;;;;;;;33.05;27.27;;;18.30;1.00;;;;;;5089264;28;20028;-49
2022/10/08 03:07:23;;;;;;;38.25;28.83;;;18.30;1.00;;;;;;5087992;28;20024;-55
2022/10/08 03:09:50;;;;;;;42.00;29.45;;;18.20;1.00;;;;;;5091246;28;20482;-49
2022/10/08 03:12:17;;;;;;;35.28;27.35;;;18.30;1.00;;;;;;5085037;28;20032;-50
2022/10/08 03:14:47;;;;;;;35.15;28.20;;;18.20;1.00;;;;;;5085687;28;20092;-50
2022/10/08 03:17:19;;;;;;;37.83;28.27;;;18.20;1.00;;;;;;5091960;28;20392;-49
2022/10/08 03:20:12;;;;;;;36.85;27.48;;;18.20;1.00;;;;;;5084875;28;20139;-50
2022/10/08 03:22:39;;;;;;;36.65;29.23;;;18.20;1.00;;;;;;5077134;28;20028;-49
2022/10/08 03:25:11;;;;;;;34.13;28.42;;;18.20;1.00;;;;;;5090796;28;20438;-51
2022/10/08 03:27:36;;;;;;;37.55;28.50;;;18.20;1.00;;;;;;5090824;28;20473;-53
2022/10/08 03:30:03;;;;;;;42.08;28.20;;;18.10;1.00;;;;;;5081954;28;20030;-50
2022/10/08 03:32:29;;;;;;;33.40;26.95;;;18.20;1.00;;;;;;5085866;28;20017;-48
2022/10/08 03:34:55;;;;;;;38.13;27.83;;;18.20;1.00;;;;;;5072559;28;20035;-53
2022/10/08 03:37:21;;;;;;;36.97;27.55;;;18.20;1.00;;;;;;5090499;28;20024;-49
2022/10/08 03:39:46;;;;;;;36.00;28.55;;;18.10;1.00;;;;;;5083113;28;20048;-50
2022/10/08 03:42:12;;;;;;;37.58;28.17;;;18.10;1.00;;;;;;5091601;28;20024;-52
2022/10/08 03:44:38;;;;;;;40.00;28.35;;;18.10;1.00;;;;;;5083708;28;20389;-55
2022/10/08 03:47:03;;;;;;;40.70;28.58;;;18.10;1.00;;;;;;5090997;28;20038;-53
2022/10/08 03:49:29;;;;;;;38.40;28.65;;;18.00;1.00;;;;;;5090382;28;20063;-52
2022/10/08 03:51:54;;;;;;;37.28;27.63;;;18.10;1.00;;;;;;5091325;28;20044;-53
2022/10/08 03:54:20;;;;;;;33.63;27.80;;;18.10;1.00;;;;;;5089012;28;20055;-53
2022/10/08 03:56:45;;;;;;;36.38;27.38;;;18.10;1.00;;;;;;5086430;28;20025;-51
2022/10/08 03:59:11;;;;;;;37.45;28.15;;;18.00;1.00;;;;;;5084367;28;20474;-51
2022/10/08 04:01:37;;;;;;;36.72;27.92;;;18.00;1.00;;;;;;5093050;28;20028;-52
2022/10/08 04:04:03;;;;;;;38.20;27.95;;;18.10;1.00;;;;;;5085138;28;20112;-49
2022/10/08 04:06:28;;;;;;;37.53;29.00;;;18.00;1.00;;;;;;5094966;28;20020;-53
2022/10/08 04:08:59;;;;;;;40.67;27.88;;;18.00;1.00;;;;;;5094804;28;20480;-53
2022/10/08 04:11:26;;;;;;;38.42;28.63;;;18.00;1.00;;;;;;5094137;28;20024;-50
2022/10/08 04:13:52;;;;;;;36.67;27.27;;;18.00;1.00;;;;;;5094953;28;20068;-49
2022/10/08 04:16:18;;;;;;;36.40;28.95;;;18.00;1.00;;;;;;5089604;28;20052;-53
2022/10/08 04:18:44;;;;;;;36.05;27.85;;;18.00;1.00;;;;;;5093805;28;20051;-52
2022/10/08 04:21:13;;;;;;;40.58;29.48;;;18.00;1.00;;;;;;5095590;28;20074;-49
2022/10/08 04:23:40;;;;;;;39.58;29.08;;;18.00;1.00;;;;;;5091726;28;20039;-54
2022/10/08 04:26:06;;;;;;;39.53;28.45;;;18.00;1.00;;;;;;5094941;28;20438;-51
2022/10/08 04:28:32;;;;;;;40.08;29.63;;;18.00;1.00;;;;;;5093723;28;20564;-51
2022/10/08 04:30:59;;;;;;;42.08;29.63;;;18.00;1.00;;;;;;5094796;28;20032;-52
2022/10/08 04:33:25;;;;;;;38.92;29.33;;;18.00;1.00;;;;;;5094840;28;20028;-50
2022/10/08 04:35:51;;;;;;;39.67;28.35;;;17.90;1.00;;;;;;5094157;28;20024;-52
2022/10/08 04:38:17;;;;;;;42.17;31.42;;;17.90;1.00;;;;;;5094250;28;20165;-49
2022/10/08 04:40:45;;;;;;;38.40;29.27;;;17.90;1.00;;;;;;5086232;28;20028;-48
2022/10/08 04:43:11;;;;;;;37.50;30.33;;;17.90;1.00;;;;;;5094774;28;20393;-54
2022/10/08 04:45:45;;;;;;;39.70;30.65;;;17.90;1.00;;;;;;5091509;28;20039;-52
2022/10/08 04:48:12;;;;;;;37.10;29.67;;;18.00;1.00;;;;;;5094470;28;20134;-49
2022/10/08 04:50:38;;;;;;;41.15;31.30;;;17.90;1.00;;;;;;5093479;28;20081;-48
2022/10/08 04:53:05;;;;;;;37.63;29.77;;;17.90;1.00;;;;;;5091756;28;20044;-50
2022/10/08 04:55:31;;;;;;;41.08;30.90;;;17.90;1.00;;;;;;5089096;28;20485;-52
2022/10/08 04:57:56;;;;;;;40.65;31.33;;;17.90;1.00;;;;;;5094970;28;20420;-48
2022/10/08 05:00:22;;;;;;;41.83;31.00;;;17.90;1.00;;;;;;5093015;28;20106;-48
2022/10/08 05:02:48;;;;;;;44.83;32.80;;;17.90;1.00;;;;;;5082489;28;20073;-50
2022/10/08 05:05:14;;;;;;;42.78;31.42;;;17.90;1.00;;;;;;5085832;28;20036;-49
2022/10/08 05:07:40;;;;;;;45.25;32.45;;;17.90;1.00;;;;;;5089333;28;20028;-51
2022/10/08 05:10:06;;;;;;;43.72;31.60;;;17.90;1.00;;;;;;5091504;28;20032;-49
2022/10/08 05:12:31;;;;;;;42.58;31.10;;;17.90;1.00;;;;;;5092784;28;20029;-50
2022/10/08 05:14:57;;;;;;;39.63;28.63;;;17.90;1.00;;;;;;5091519;28;20115;-50
2022/10/08 05:17:22;;;;;;;35.35;28.02;;;17.90;1.00;;;;;;5082117;28;20374;-51
2022/10/08 05:19:48;;;;;;;38.75;27.88;;;17.90;1.00;;;;;;5088326;28;20051;-50
2022/10/08 05:22:14;;;;;;;38.22;28.08;;;17.90;1.00;;;;;;5092738;28;20339;-51
2022/10/08 05:24:39;;;;;;;41.88;27.73;;;17.80;1.00;;;;;;5092882;28;20393;-53
2022/10/08 05:27:05;;;;;;;35.10;26.38;;;17.80;1.00;;;;;;5079752;28;20054;-49
2022/10/08 05:29:31;;;;;;;34.17;25.50;;;17.80;1.00;;;;;;5087637;28;20029;-48
2022/10/08 05:31:56;;;;;;;38.30;27.73;;;17.80;1.00;;;;;;5087826;28;20077;-50
2022/10/08 05:34:22;;;;;;;32.38;25.70;;;17.80;1.00;;;;;;5092931;28;20106;-51
2022/10/08 05:36:48;;;;;;;31.92;24.05;;;17.80;1.00;;;;;;5093443;28;20381;-52
2022/10/08 05:39:14;;;;;;;31.02;22.73;;;17.80;1.00;;;;;;5089390;28;20032;-50
2022/10/08 05:41:40;;;;;;;28.23;23.08;;;17.80;1.00;;;;;;5086668;28;20020;-51
2022/10/08 05:44:07;;;;;;;25.58;20.75;;;17.80;1.00;;;;;;5089562;28;20448;-50
2022/10/08 05:46:34;;;;;;;25.80;20.00;;;17.70;1.00;;;;;;5082590;28;20016;-50
2022/10/08 05:49:01;;;;;;;26.38;19.58;;;17.70;1.00;;;;;;5091953;28;20031;-51
2022/10/08 05:51:28;;;;;;;30.08;20.33;;;17.70;1.00;;;;;;5081244;28;20107;-51
2022/10/08 05:53:55;;;;;;;24.63;19.80;;;17.70;1.00;;;;;;5092358;28;20048;-52
2022/10/08 05:56:23;;;;;;;26.33;19.30;;;17.70;1.00;;;;;;5077380;28;20107;-49
2022/10/08 05:58:49;;;;;;;24.83;19.63;;;17.70;1.00;;;;;;5089193;28;20062;-50
2022/10/08 06:01:21;;;;;;;24.95;19.77;;;17.70;1.00;;;;;;5090540;28;20023;-48
2022/10/08 06:03:49;;;;;;;21.83;18.38;;;17.70;1.00;;;;;;5092265;28;20047;-51
2022/10/08 06:06:15;;;;;;;24.77;19.75;;;17.60;1.00;;;;;;5095079;28;20469;-53
2022/10/08 06:08:40;;;;;;;25.17;18.80;;;17.70;1.00;;;;;;5086789;28;20020;-50
2022/10/08 06:11:06;;;;;;;25.10;19.60;;;17.70;1.00;;;;;;5090685;28;20024;-52
2022/10/08 06:13:33;;;;;;;23.85;19.15;;;17.70;1.00;;;;;;5089445;28;20024;-51
2022/10/08 06:16:08;;;;;;;24.00;19.80;;;17.70;1.00;;;;;;5092084;28;20012;-49
2022/10/08 06:18:34;;;;;;;;;;;17.70;1.00;;;;;;5086736;28;20374;-51
2022/10/08 06:21:08;;;;;;;25.95;19.35;;;17.70;1.00;;;;;;5090969;28;20396;-49
2022/10/08 06:23:36;;;;;;;23.98;19.10;;;17.70;1.00;;;;;;5089735;28;20021;-49
2022/10/08 06:26:07;;;;;;;28.50;20.92;;;17.70;1.00;;;;;;5090729;28;20493;-53
2022/10/08 06:28:34;;;;;;;30.55;20.85;;;17.80;1.00;;;;;;5092170;28;20016;-49
2022/10/08 06:31:00;;;;;;;24.08;19.80;;;17.90;1.00;;;;;;5090838;28;20031;-50
2022/10/08 06:33:26;;;;;;;24.58;19.67;;;17.90;1.00;;;;;;5081782;28;20016;-53
2022/10/08 06:35:52;;;;;;;29.25;20.88;;;17.90;1.00;;;;;;5077339;28;20031;-50
2022/10/08 06:38:18;;;;;;;29.58;20.92;;;17.80;1.00;;;;;;5084547;28;20028;-52
2022/10/08 06:40:44;;;;;;;27.65;20.67;;;17.90;1.00;;;;;;5090911;28;20797;-53
2022/10/08 06:43:11;;;;;;;29.42;23.38;;;17.90;1.00;;;;;;5089081;28;20042;-52
2022/10/08 06:45:38;;;;;;;55.97;50.03;;;18.00;1.00;;;;;;5089093;28;20036;-50
2022/10/08 06:48:04;;;;;;;48.20;42.55;;;18.00;1.00;;;;;;5077538;28;20078;-54
2022/10/08 06:50:29;;;;;;;57.80;46.95;;;18.00;1.00;;;;;;5092068;28;20032;-50
2022/10/08 06:52:55;;;;;;;53.88;46.17;;;18.00;1.00;;;;;;5083961;28;20113;-49
2022/10/08 06:55:21;;;;;;;43.17;34.42;;;18.00;1.00;;;;;;5092420;28;20024;-51
2022/10/08 06:57:46;;;;;;;48.28;35.33;;;18.00;1.00;;;;;;5090084;28;20517;-53
2022/10/08 07:00:12;;;;;;;55.70;43.72;;;18.00;1.00;;;;;;5082511;28;20109;-58
2022/10/08 07:02:38;;;;;;;47.58;37.33;;;18.00;1.00;;;;;;5084294;28;20059;-54
2022/10/08 07:05:04;;;;;;;35.50;26.92;;;18.00;1.00;;;;;;5085430;28;20032;-54
2022/10/08 07:07:30;;;;;;;34.53;28.35;;;18.10;1.00;;;;;;5080368;28;20063;-55
2022/10/08 07:09:55;;;;;;;34.15;25.80;;;18.10;1.00;;;;;;5091520;28;20409;-58
2022/10/08 07:12:21;;;;;;;33.60;26.27;;;18.20;1.00;;;;;;5076579;28;20093;-59
2022/10/08 07:14:47;;;;;;;42.25;28.17;;;18.20;1.00;;;;;;5091847;28;20039;-55
2022/10/08 07:17:13;;;;;;;37.22;26.52;;;18.30;1.00;;;;;;5089339;28;20073;-53
2022/10/08 07:19:38;;;;;;;35.63;28.27;;;18.30;1.00;;;;;;5088226;28;20074;-50
2022/10/08 07:22:04;;;;;;;38.95;27.65;;;18.30;1.00;;;;;;5079979;28;20029;-50
2022/10/08 07:24:29;;;;;;;33.13;26.20;;;18.40;1.00;;;;;;5076360;28;20040;-54
2022/10/08 07:26:55;;;;;;;29.65;23.52;;;18.40;1.00;;;;;;5074473;28;20029;-53
2022/10/08 07:29:26;;;;;;;34.38;25.80;;;18.40;1.00;;;;;;5087811;28;20127;-51
2022/10/08 07:31:52;;;;;;;36.13;25.40;;;18.40;1.00;;;;;;5074880;28;20028;-51
2022/10/08 07:34:18;;;;;;;32.28;24.33;;;18.40;1.00;;;;;;5090696;28;20339;-50
2022/10/08 07:36:44;;;;;;;34.33;24.38;;;18.50;1.00;;;;;;5089751;28;20073;-55
2022/10/08 07:39:15;;;;;;;38.13;26.98;;;18.40;1.00;;;;;;5090282;28;20435;-56
2022/10/08 07:41:41;;;;;;;33.03;25.73;;;18.50;1.00;;;;;;5085790;28;20027;-57
2022/10/08 07:44:09;;;;;;;33.60;26.30;;;18.50;1.00;;;;;;5078299;28;20024;-52
